Time;durP1;ratioP1;P1;durP2;ratioP2;P2;SDS_P1;SDS_P2;PMS_P1;PMS_P2;Temp;Humidity;BMP_temperature;BMP_pressure;BME280_temperature;BME280_humidity;BME280_pressure;Samples;Min_cycle;Max_cycle;Signal;HPM_P1;HPM_P2
2022/08/26 00:00:44;;;;;;;42.40;35.58;;;22.40;99.90;;;;;;4978287;28;20013;-63
2022/08/26 00:03:11;;;;;;;40.47;33.97;;;22.30;99.90;;;;;;4980576;28;20530;-63
2022/08/26 00:05:38;;;;;;;41.28;34.45;;;22.30;99.90;;;;;;4981644;28;20140;-63
2022/08/26 00:08:04;;;;;;;36.65;32.70;;;22.30;99.90;;;;;;4979283;28;20288;-64
2022/08/26 00:10:30;;;;;;;37.38;32.97;;;22.30;99.90;;;;;;4983716;28;20047;-64
2022/08/26 00:12:55;;;;;;;37.88;33.72;;;22.30;99.90;;;;;;4973200;28;20050;-64
2022/08/26 00:15:22;;;;;;;38.78;32.10;;;22.20;99.90;;;;;;4988351;28;20070;-64
2022/08/26 00:17:49;;;;;;;36.08;32.15;;;22.20;99.90;;;;;;4975057;28;20030;-63
2022/08/26 00:20:20;;;;;;;40.28;33.47;;;22.20;99.90;;;;;;4987745;28;20046;-64
2022/08/26 00:22:46;;;;;;;37.85;32.85;;;22.20;99.90;;;;;;4976617;28;20520;-64
2022/08/26 00:25:12;;;;;;;35.22;31.42;;;22.20;99.90;;;;;;4982973;28;20116;-64
2022/08/26 00:27:38;;;;;;;40.03;33.50;;;22.10;99.90;;;;;;4981579;28;20046;-65
2022/08/26 00:30:08;;;;;;;38.80;32.58;;;22.10;99.90;;;;;;4974101;28;20033;-64
2022/08/26 00:32:34;;;;;;;35.67;31.33;;;22.20;99.90;;;;;;4986758;28;20058;-63
2022/08/26 00:35:00;;;;;;;36.58;30.75;;;22.10;99.90;;;;;;4979867;28;20030;-64
2022/08/26 00:37:26;;;;;;;38.28;30.83;;;22.10;99.90;;;;;;4985788;28;20066;-64
2022/08/26 00:39:52;;;;;;;35.97;30.20;;;22.20;99.90;;;;;;4984663;28;20058;-64
2022/08/26 00:42:17;;;;;;;34.45;29.13;;;22.20;99.90;;;;;;4982281;28;20155;-63
2022/08/26 00:44:43;;;;;;;35.10;29.25;;;22.10;99.90;;;;;;4981572;28;20046;-63
2022/08/26 00:47:29;;;;;;;34.92;30.00;;;22.20;99.90;;;;;;4980436;28;20078;-63
2022/08/26 00:49:55;;;;;;;36.72;30.10;;;22.10;99.90;;;;;;4971437;28;20503;-63
2022/08/26 00:52:22;;;;;;;35.88;28.85;;;22.10;99.90;;;;;;4987147;28;20499;-63
2022/08/26 00:55:03;;;;;;;34.92;27.48;;;22.20;99.90;;;;;;4987292;28;20069;-63
2022/08/26 00:57:30;;;;;;;32.77;27.13;;;22.10;99.90;;;;;;4980850;28;20045;-64
2022/08/26 00:59:59;;;;;;;34.38;26.85;;;22.10;99.90;;;;;;4976592;28;20030;-63
2022/08/26 01:02:26;;;;;;;33.78;25.90;;;22.20;99.90;;;;;;4975566;28;20038;-64
2022/08/26 01:04:55;;;;;;;30.35;25.38;;;22.10;99.90;;;;;;4979183;28;20045;-63
2022/08/26 01:07:22;;;;;;;33.67;25.38;;;22.10;99.90;;;;;;4978933;28;20085;-64
2022/08/26 01:09:48;;;;;;;31.52;24.15;;;22.10;99.90;;;;;;4975660;28;20047;-63
2022/08/26 01:12:14;;;;;;;28.75;23.75;;;22.20;99.90;;;;;;4979204;28;20034;-64
2022/08/26 01:14:39;;;;;;;28.83;23.98;;;22.10;99.90;;;;;;5021402;28;20453;-63
2022/08/26 01:17:07;;;;;;;31.30;24.30;;;22.20;99.90;;;;;;4976519;28;20034;-64
2022/08/26 01:19:39;;;;;;;29.75;24.48;;;22.10;99.90;;;;;;4976819;28;20042;-63
2022/08/26 01:22:09;;;;;;;29.80;22.73;;;22.10;99.90;;;;;;4972408;28;20118;-63
2022/08/26 01:24:36;;;;;;;28.88;22.25;;;22.10;99.90;;;;;;4982997;28;20125;-64
2022/08/26 01:27:06;;;;;;;32.45;22.77;;;22.10;99.90;;;;;;4984338;28;20438;-64
2022/08/26 01:29:33;;;;;;;26.80;20.33;;;22.10;99.90;;;;;;4985080;28;20046;-64
2022/08/26 01:31:59;;;;;;;28.08;21.58;;;22.10;99.90;;;;;;4980642;28;20437;-63
2022/08/26 01:34:29;;;;;;;26.25;21.08;;;22.10;99.90;;;;;;4983151;28;20505;-64
2022/08/26 01:37:03;;;;;;;25.85;19.52;;;22.10;99.90;;;;;;4973428;28;20038;-63
2022/08/26 01:39:31;;;;;;;24.67;18.85;;;22.10;99.90;;;;;;4974315;28;20515;-63
2022/08/26 01:41:58;;;;;;;28.08;18.77;;;22.10;99.90;;;;;;4974872;28;20054;-64
2022/08/26 01:44:27;;;;;;;24.40;17.60;;;22.10;99.90;;;;;;4979421;28;20046;-64
2022/08/26 01:46:55;;;;;;;28.95;18.00;;;22.10;99.90;;;;;;4991005;28;20503;-63
2022/08/26 01:49:23;;;;;;;21.23;17.20;;;22.10;99.90;;;;;;4976339;28;20070;-64
2022/08/26 01:51:51;;;;;;;21.73;17.27;;;22.10;99.90;;;;;;4975732;28;20050;-64
2022/08/26 01:54:17;;;;;;;22.20;17.00;;;22.10;99.90;;;;;;4977357;28;20126;-63
2022/08/26 01:56:42;;;;;;;23.17;15.27;;;22.20;99.90;;;;;;4983077;28;20562;-64
2022/08/26 01:59:12;;;;;;;23.30;16.55;;;22.10;99.90;;;;;;4984810;28;20034;-63
2022/08/26 02:01:38;;;;;;;20.42;15.07;;;22.10;99.90;;;;;;4979373;28;20068;-64
2022/08/26 02:04:12;;;;;;;19.27;15.38;;;22.10;99.90;;;;;;4980292;28;20047;-63
2022/08/26 02:06:38;;;;;;;21.38;14.93;;;22.10;99.90;;;;;;4982750;28;20045;-64
2022/08/26 02:09:05;;;;;;;20.48;14.93;;;22.10;99.90;;;;;;5040669;22;20133;-63
2022/08/26 02:11:31;;;;;;;18.52;13.38;;;22.10;99.90;;;;;;5019685;28;20047;-64
2022/08/26 02:14:02;;;;;;;19.13;13.63;;;22.00;99.90;;;;;;4985498;28;20038;-65
2022/08/26 02:16:35;;;;;;;20.73;13.63;;;22.00;99.90;;;;;;5053721;28;20046;-65
2022/08/26 02:19:01;;;;;;;20.33;12.65;;;22.00;99.90;;;;;;4987449;28;20103;-65
2022/08/26 02:21:28;;;;;;;16.25;12.63;;;22.00;99.90;;;;;;5041565;28;20054;-65
2022/08/26 02:23:55;;;;;;;19.20;12.10;;;22.00;99.90;;;;;;5046867;28;20074;-65
2022/08/26 02:26:23;;;;;;;17.63;11.27;;;22.00;99.90;;;;;;5036081;28;20046;-65
2022/08/26 02:28:51;;;;;;;19.02;11.65;;;22.00;99.90;;;;;;5071030;28;20031;-63
2022/08/26 02:31:17;;;;;;;16.30;10.88;;;22.00;99.90;;;;;;5060666;28;20043;-64
2022/08/26 02:33:43;;;;;;;18.08;10.68;;;22.00;99.90;;;;;;4989294;28;20043;-65
2022/08/26 02:36:09;;;;;;;17.60;10.05;;;22.00;99.90;;;;;;4995708;28;20030;-63
2022/08/26 02:38:35;;;;;;;13.20;9.45;;;22.00;99.90;;;;;;5000721;28;20130;-63
2022/08/26 02:41:01;;;;;;;14.10;9.43;;;21.90;99.90;;;;;;5066201;28;20523;-65
2022/08/26 02:43:26;;;;;;;17.17;9.80;;;21.90;99.90;;;;;;5052820;28;20038;-65
2022/08/26 02:45:52;;;;;;;17.92;9.48;;;21.90;99.90;;;;;;5050555;28;20444;-64
2022/08/26 02:48:20;;;;;;;15.95;9.05;;;21.90;99.90;;;;;;4985766;28;20035;-64
2022/08/26 02:50:46;;;;;;;14.07;8.65;;;21.90;99.90;;;;;;4989691;28;20385;-62
2022/08/26 02:53:12;;;;;;;17.20;9.05;;;21.90;99.90;;;;;;5033041;28;20046;-63
2022/08/26 02:55:39;;;;;;;12.45;9.25;;;21.90;99.90;;;;;;4987331;28;20045;-65
2022/08/26 02:58:05;;;;;;;12.20;8.27;;;21.90;99.90;;;;;;5044129;28;20102;-65
2022/08/26 03:00:31;;;;;;;14.20;8.50;;;21.90;99.90;;;;;;5017900;28;20484;-65
2022/08/26 03:02:58;;;;;;;13.30;7.78;;;21.80;99.90;;;;;;4990260;28;20045;-65
2022/08/26 03:05:24;;;;;;;13.10;8.60;;;21.90;99.90;;;;;;4989299;28;20480;-65
2022/08/26 03:07:50;;;;;;;12.55;8.00;;;21.80;99.90;;;;;;4989901;28;20038;-65
2022/08/26 03:10:16;;;;;;;15.63;8.23;;;21.80;99.90;;;;;;5056588;28;20042;-65
2022/08/26 03:12:44;;;;;;;13.13;7.93;;;21.80;99.90;;;;;;4990114;28;20049;-62
2022/08/26 03:15:10;;;;;;;13.32;8.20;;;21.80;99.90;;;;;;5044036;28;20045;-65
2022/08/26 03:17:36;;;;;;;13.13;8.07;;;21.70;99.90;;;;;;5057338;28;20403;-63
2022/08/26 03:20:07;;;;;;;19.30;8.45;;;21.70;99.90;;;;;;4988809;28;20058;-62
2022/08/26 03:22:33;;;;;;;12.85;8.18;;;21.70;99.90;;;;;;4989408;28;20053;-65
2022/08/26 03:24:58;;;;;;;14.65;8.85;;;21.70;99.90;;;;;;4988464;28;20030;-63
2022/08/26 03:27:24;;;;;;;16.20;8.50;;;21.70;99.90;;;;;;4989377;28;20087;-65
2022/08/26 03:32:34;;;;;;;14.65;8.50;;;21.70;99.90;;;;;;4989091;28;20074;-65
2022/08/26 03:34:59;;;;;;;11.98;7.97;;;21.70;99.90;;;;;;5021889;28;20065;-65
2022/08/26 03:37:25;;;;;;;14.18;8.10;;;21.70;99.90;;;;;;5023053;28;20045;-62
2022/08/26 03:39:51;;;;;;;14.93;8.25;;;21.70;99.90;;;;;;4981551;28;20043;-64
2022/08/26 03:42:16;;;;;;;14.75;8.02;;;21.70;99.90;;;;;;5055010;28;20114;-65
2022/08/26 03:44:42;;;;;;;15.80;7.43;;;21.70;99.90;;;;;;5070529;28;20039;-65
2022/08/26 03:47:08;;;;;;;13.35;7.80;;;21.70;99.90;;;;;;5040399;28;20064;-65
2022/08/26 03:49:34;;;;;;;12.60;7.53;;;21.70;99.90;;;;;;4988875;28;20486;-65
2022/08/26 03:52:01;;;;;;;15.93;7.60;;;21.70;99.90;;;;;;5018829;28;20046;-65
2022/08/26 03:54:26;;;;;;;13.52;6.82;;;21.70;99.90;;;;;;5034519;28;20188;-65
2022/08/26 03:56:52;;;;;;;14.40;6.97;;;21.70;99.90;;;;;;4988684;28;20563;-65
2022/08/26 03:59:18;;;;;;;12.32;7.07;;;21.70;99.90;;;;;;4988944;28;20042;-65
2022/08/26 04:01:47;;;;;;;13.63;7.13;;;21.70;99.90;;;;;;4988731;28;20496;-65
2022/08/26 04:04:12;;;;;;;14.48;6.90;;;21.70;99.90;;;;;;4987684;28;20034;-65
2022/08/26 04:06:42;;;;;;;13.15;7.30;;;21.70;99.90;;;;;;4988850;28;20054;-65
2022/08/26 04:09:14;;;;;;;10.77;6.35;;;21.70;99.90;;;;;;5045579;28;20049;-64
2022/08/26 04:11:42;;;;;;;12.55;6.68;;;21.70;99.90;;;;;;4988403;28;20038;-64
2022/08/26 04:14:13;;;;;;;13.77;6.80;;;21.70;99.90;;;;;;4989388;28;20136;-63
2022/08/26 04:16:41;;;;;;;12.35;6.15;;;21.70;99.90;;;;;;5048415;28;20034;-65
2022/08/26 04:19:07;;;;;;;10.90;6.88;;;21.70;99.90;;;;;;5010413;28;20109;-65
2022/08/26 04:21:33;;;;;;;11.80;5.93;;;21.70;99.90;;;;;;4988763;28;20068;-65
2022/08/26 04:23:59;;;;;;;10.48;6.20;;;21.60;99.90;;;;;;4987507;28;20041;-65
2022/08/26 04:26:25;;;;;;;11.38;6.45;;;21.60;99.90;;;;;;5036061;28;20414;-65
2022/08/26 04:28:53;;;;;;;10.65;6.13;;;21.60;99.90;;;;;;5051288;28;20034;-65
2022/08/26 04:31:19;;;;;;;11.65;6.22;;;21.60;99.90;;;;;;5038519;28;20431;-65
2022/08/26 04:33:48;;;;;;;15.40;6.25;;;21.60;99.90;;;;;;4987329;28;20109;-65
2022/08/26 04:36:14;;;;;;;10.75;5.68;;;21.60;99.90;;;;;;5055006;28;20038;-65
2022/08/26 04:38:40;;;;;;;11.38;5.75;;;21.60;99.90;;;;;;4986220;28;20176;-65
2022/08/26 04:41:12;;;;;;;11.88;5.95;;;21.60;99.90;;;;;;5049499;28;20046;-66
2022/08/26 04:43:38;;;;;;;12.52;6.00;;;21.60;99.90;;;;;;4993902;28;20407;-64
2022/08/26 04:46:05;;;;;;;12.60;5.43;;;21.60;99.90;;;;;;5045260;28;20121;-66
2022/08/26 04:48:32;;;;;;;11.25;5.93;;;21.60;99.90;;;;;;4992979;28;20050;-65
2022/08/26 04:50:58;;;;;;;15.88;5.82;;;21.60;99.90;;;;;;4988236;28;20123;-66
2022/08/26 04:53:25;;;;;;;9.80;5.22;;;21.60;99.90;;;;;;4988716;28;20046;-65
2022/08/26 04:55:51;;;;;;;9.45;5.15;;;21.60;99.90;;;;;;4995373;28;20046;-66
2022/08/26 04:58:20;;;;;;;9.85;5.18;;;21.60;99.90;;;;;;5023201;28;20028;-66
2022/08/26 05:00:51;;;;;;;11.00;5.60;;;21.60;99.90;;;;;;4996109;28;20183;-66
2022/08/26 05:03:17;;;;;;;9.43;5.07;;;21.60;99.90;;;;;;4992045;28;20038;-64
2022/08/26 05:05:48;;;;;;;9.00;4.70;;;21.60;99.90;;;;;;4993539;28;20066;-63
2022/08/26 05:08:15;;;;;;;12.03;4.97;;;21.60;99.90;;;;;;5049039;28;20046;-65
2022/08/26 05:10:47;;;;;;;14.02;4.82;;;21.60;99.90;;;;;;4993297;28;20057;-64
2022/08/26 05:13:15;;;;;;;9.88;4.50;;;21.70;99.90;;;;;;4989280;28;20041;-61
2022/08/26 05:15:41;;;;;;;8.18;4.20;;;21.70;99.90;;;;;;5051214;28;20046;-66
2022/08/26 05:18:07;;;;;;;8.63;4.22;;;21.70;99.90;;;;;;5054206;28;20068;-66
2022/08/26 05:20:43;;;;;;;10.07;4.40;;;21.70;99.90;;;;;;4990856;28;20042;-65
2022/08/26 05:23:08;;;;;;;12.25;4.40;;;21.80;99.90;;;;;;4993098;28;20500;-66
2022/08/26 05:25:40;;;;;;;9.77;4.55;;;21.80;99.90;;;;;;4990538;28;20042;-66
2022/08/26 05:28:07;;;;;;;10.07;4.88;;;21.80;99.90;;;;;;4990135;28;20069;-65
2022/08/26 05:30:33;;;;;;;10.00;4.63;;;21.90;99.90;;;;;;5055908;28;20118;-66
2022/08/26 05:32:59;;;;;;;10.85;4.47;;;21.90;99.90;;;;;;5043202;28;20709;-66
2022/08/26 05:35:30;;;;;;;11.60;4.57;;;21.90;99.90;;;;;;5057077;28;20092;-66
2022/08/26 05:37:57;;;;;;;11.43;4.70;;;21.90;99.90;;;;;;5001729;28;20041;-65
2022/08/26 05:40:23;;;;;;;10.27;4.70;;;21.90;99.90;;;;;;5034899;28;20070;-66
2022/08/26 05:42:51;;;;;;;9.77;4.80;;;22.00;99.90;;;;;;4990356;28;20035;-66
2022/08/26 05:45:17;;;;;;;11.27;4.90;;;22.00;99.90;;;;;;5045632;28;20492;-65
2022/08/26 05:47:43;;;;;;;14.30;5.07;;;22.00;99.90;;;;;;4991345;28;20030;-66
2022/08/26 05:50:09;;;;;;;12.13;5.40;;;22.00;99.90;;;;;;4990710;28;20103;-66
2022/08/26 05:52:34;;;;;;;11.02;4.82;;;22.00;99.90;;;;;;4984296;28;20042;-66
2022/08/26 05:55:00;;;;;;;11.73;4.75;;;22.00;99.90;;;;;;5002199;28;20057;-63
2022/08/26 05:57:28;;;;;;;12.82;4.93;;;22.00;99.90;;;;;;5007073;28;20179;-66
2022/08/26 05:59:53;;;;;;;11.65;4.88;;;22.00;99.90;;;;;;5056498;28;20038;-66
2022/08/26 06:02:19;;;;;;;13.45;4.80;;;22.00;99.90;;;;;;4992293;28;20034;-66
2022/08/26 06:04:45;;;;;;;12.50;4.32;;;22.00;99.90;;;;;;4995294;28;20045;-64
2022/08/26 06:07:10;;;;;;;9.43;4.57;;;22.00;99.90;;;;;;5080037;28;20087;-67
2022/08/26 06:09:37;;;;;;;12.40;4.90;;;22.00;99.90;;;;;;4998044;28;20042;-66
2022/08/26 06:12:03;;;;;;;10.25;4.20;;;22.00;99.90;;;;;;5001044;28;20487;-64
2022/08/26 06:14:29;;;;;;;10.77;4.22;;;22.00;99.90;;;;;;4994180;28;20038;-65
2022/08/26 06:16:55;;;;;;;9.00;3.83;;;22.00;99.90;;;;;;4997120;28;20087;-66
2022/08/26 06:19:21;;;;;;;11.90;4.20;;;22.00;99.90;;;;;;4996186;28;20069;-65
2022/08/26 06:21:48;;;;;;;6.60;3.80;;;22.10;99.90;;;;;;5056276;28;20038;-65
2022/08/26 06:27:02;;;;;;;8.32;3.67;;;22.10;99.90;;;;;;5050821;28;20043;-63
2022/08/26 06:29:31;;;;;;;9.63;3.72;;;22.10;99.90;;;;;;5062559;28;20046;-64
2022/08/26 06:31:58;;;;;;;10.30;3.47;;;22.10;99.90;;;;;;5063849;28;20508;-63
2022/08/26 06:34:27;;;;;;;9.30;3.35;;;22.10;99.90;;;;;;4996080;28;20030;-65
2022/08/26 06:36:54;;;;;;;9.95;3.88;;;22.10;99.90;;;;;;4995176;28;20037;-66
2022/08/26 06:39:20;;;;;;;8.98;3.63;;;22.10;99.90;;;;;;4998365;28;20038;-62
2022/08/26 06:41:49;;;;;;;13.70;3.33;;;22.10;99.90;;;;;;5072080;28;20068;-64
2022/08/26 06:44:15;;;;;;;6.95;3.17;;;22.10;99.90;;;;;;4998388;28;20053;-66
2022/08/26 06:46:42;;;;;;;5.90;2.97;;;22.10;99.90;;;;;;4999466;28;20046;-65
2022/08/26 06:49:08;;;;;;;14.05;3.80;;;22.20;99.90;;;;;;4999578;28;20042;-66
2022/08/26 06:51:35;;;;;;;10.80;3.00;;;22.20;99.90;;;;;;5057866;28;20046;-66
2022/08/26 06:54:03;;;;;;;11.32;2.80;;;22.10;99.90;;;;;;4998009;28;20042;-66
2022/08/26 06:56:38;;;;;;;8.60;3.10;;;22.20;99.90;;;;;;4998658;28;20046;-65
2022/08/26 06:59:03;;;;;;;9.52;3.53;;;22.10;99.90;;;;;;4998460;28;20038;-66
2022/08/26 07:01:33;;;;;;;9.65;3.10;;;22.10;99.90;;;;;;5059577;28;20561;-66
2022/08/26 07:04:02;;;;;;;10.25;3.10;;;22.10;99.90;;;;;;5000941;28;20035;-62
2022/08/26 07:06:29;;;;;;;8.13;2.97;;;22.10;99.90;;;;;;4998816;28;20314;-65
2022/08/26 07:09:02;;;;;;;10.90;3.85;;;22.10;99.90;;;;;;5067435;28;20069;-65
2022/08/26 07:11:28;;;;;;;9.05;3.00;;;22.10;99.90;;;;;;5073402;28;20472;-65
2022/08/26 07:13:54;;;;;;;11.25;3.40;;;22.10;99.90;;;;;;5083547;28;20034;-66
2022/08/26 07:16:20;;;;;;;8.57;2.92;;;22.00;99.90;;;;;;4995453;28;20031;-66
2022/08/26 07:18:47;;;;;;;9.82;3.05;;;22.00;99.90;;;;;;4985746;28;20039;-65
2022/08/26 07:21:16;;;;;;;7.57;2.88;;;22.00;99.90;;;;;;5054464;28;20031;-63
2022/08/26 07:23:41;;;;;;;11.52;3.72;;;22.00;99.90;;;;;;4990559;28;20129;-63
2022/08/26 07:26:10;;;;;;;9.65;3.20;;;22.00;99.90;;;;;;4988475;28;20068;-62
2022/08/26 07:28:36;;;;;;;9.80;3.20;;;21.90;99.90;;;;;;5037721;28;20042;-63
2022/08/26 07:31:07;;;;;;;9.85;3.10;;;21.90;99.90;;;;;;5056822;28;20092;-63
2022/08/26 07:33:33;;;;;;;8.73;3.10;;;22.00;99.90;;;;;;4991101;28;20096;-66
2022/08/26 07:35:59;;;;;;;7.13;3.22;;;21.90;99.90;;;;;;5010676;28;20042;-62
2022/08/26 07:38:25;;;;;;;9.70;2.75;;;21.90;99.90;;;;;;4987641;28;20387;-63
2022/08/26 07:40:51;;;;;;;9.45;3.08;;;22.00;99.90;;;;;;5051716;28;20046;-64
2022/08/26 07:43:17;;;;;;;10.10;3.28;;;22.00;99.90;;;;;;4987296;28;20050;-63
2022/08/26 07:45:43;;;;;;;12.55;3.35;;;22.00;99.90;;;;;;4987505;28;20483;-64
2022/08/26 07:48:08;;;;;;;8.27;2.83;;;22.00;99.90;;;;;;4986848;28;20130;-66
2022/08/26 07:50:34;;;;;;;10.07;3.28;;;22.00;99.90;;;;;;4982788;28;20101;-64
2022/08/26 07:53:01;;;;;;;8.90;2.38;;;22.00;99.90;;;;;;5041678;28;20042;-65
2022/08/26 07:55:28;;;;;;;8.73;3.10;;;22.00;99.90;;;;;;4985561;28;20088;-62
2022/08/26 07:57:54;;;;;;;7.50;2.75;;;22.00;99.90;;;;;;4983120;28;20113;-64
2022/08/26 08:00:21;;;;;;;7.30;2.85;;;22.00;99.90;;;;;;5044733;28;20030;-64
2022/08/26 08:02:47;;;;;;;9.35;2.83;;;22.00;99.90;;;;;;4984680;28;20062;-66
2022/08/26 08:05:15;;;;;;;8.25;2.20;;;22.10;99.90;;;;;;5049713;28;20377;-66
2022/08/26 08:07:43;;;;;;;7.78;2.53;;;22.10;99.90;;;;;;5049469;28;20285;-66
2022/08/26 08:10:12;;;;;;;11.05;2.42;;;22.10;99.90;;;;;;5045583;28;20089;-66
2022/08/26 08:12:39;;;;;;;8.60;2.78;;;22.10;99.90;;;;;;5036123;28;20124;-67
2022/08/26 08:15:06;;;;;;;8.32;2.47;;;22.10;99.90;;;;;;4983581;28;20035;-62
2022/08/26 08:17:33;;;;;;;5.00;2.28;;;22.10;99.90;;;;;;4984411;28;20096;-66
2022/08/26 08:19:59;;;;;;;6.60;2.65;;;22.10;99.90;;;;;;4985560;28;20117;-64
2022/08/26 08:22:24;;;;;;;8.05;2.38;;;22.10;99.90;;;;;;4983292;28;20094;-62
2022/08/26 08:24:50;;;;;;;6.90;2.58;;;22.10;99.90;;;;;;4991207;28;20286;-62
2022/08/26 08:27:16;;;;;;;7.22;2.00;;;22.10;99.90;;;;;;4981700;28;20519;-63
2022/08/26 08:29:43;;;;;;;7.63;2.50;;;22.00;99.90;;;;;;4984764;28;20043;-66
2022/08/26 08:32:08;;;;;;;6.75;2.22;;;22.10;99.90;;;;;;4983777;28;20039;-62
2022/08/26 08:34:35;;;;;;;8.55;2.08;;;22.10;99.90;;;;;;4994544;28;20049;-62
2022/08/26 08:37:00;;;;;;;9.50;2.28;;;22.10;99.90;;;;;;4990708;28;20509;-66
2022/08/26 08:39:26;;;;;;;7.10;2.10;;;22.10;99.90;;;;;;4988174;28;20102;-65
2022/08/26 08:41:58;;;;;;;9.48;2.40;;;22.10;99.90;;;;;;4993015;28;20039;-65
2022/08/26 08:44:24;;;;;;;6.72;1.95;;;22.20;99.90;;;;;;5051560;28;20124;-62
2022/08/26 08:47:01;;;;;;;9.27;2.10;;;22.20;99.90;;;;;;5049272;28;20569;-63
2022/08/26 08:49:28;;;;;;;7.63;2.15;;;22.20;99.90;;;;;;5052008;28;20039;-65
2022/08/26 08:52:03;;;;;;;8.93;2.08;;;22.20;99.90;;;;;;4988462;28;20088;-66
2022/08/26 08:54:33;;;;;;;5.05;1.90;;;22.30;99.90;;;;;;4994706;28;20217;-66
2022/08/26 08:57:10;;;;;;;7.57;2.05;;;22.30;99.90;;;;;;5047066;28;20031;-65
2022/08/26 08:59:42;;;;;;;5.70;1.90;;;22.40;99.90;;;;;;4984841;28;20153;-66
2022/08/26 09:02:28;;;;;;;6.97;1.85;;;22.50;99.90;;;;;;4981824;28;20042;-66
2022/08/26 09:05:16;;;;;;;9.48;2.17;;;22.50;99.90;;;;;;5052708;28;20062;-65
2022/08/26 09:08:00;;;;;;;6.90;2.47;;;22.50;99.90;;;;;;4985585;28;20057;-62
2022/08/26 09:10:42;;;;;;;8.50;2.03;;;22.60;99.90;;;;;;4982167;28;20043;-63
2022/08/26 09:13:10;;;;;;;6.33;2.20;;;22.50;99.90;;;;;;4983525;28;20824;-63
2022/08/26 09:15:55;;;;;;;7.22;1.70;;;22.40;99.90;;;;;;4982694;28;20861;-64
2022/08/26 09:18:51;;;;;;;7.28;2.20;;;22.40;99.90;;;;;;4980102;28;20093;-65
2022/08/26 09:21:19;;;;;;;5.40;1.50;;;22.40;99.90;;;;;;5051126;28;20099;-63
2022/08/26 09:23:46;;;;;;;6.80;2.08;;;22.40;99.90;;;;;;5006062;28;20124;-66
2022/08/26 09:26:17;;;;;;;6.05;1.60;;;22.40;99.90;;;;;;4989205;28;20078;-64
2022/08/26 09:28:53;;;;;;;8.00;2.00;;;22.40;99.90;;;;;;4985036;28;20060;-63
2022/08/26 09:31:23;;;;;;;6.80;1.63;;;22.50;99.90;;;;;;5013365;28;20492;-63
2022/08/26 09:34:13;;;;;;;5.38;1.73;;;22.50;99.90;;;;;;4987828;28;20069;-63
2022/08/26 09:36:47;;;;;;;7.15;1.52;;;22.60;99.90;;;;;;5011029;28;20042;-62
2022/08/26 09:39:35;;;;;;;6.30;2.25;;;22.60;99.90;;;;;;4980404;28;20042;-63
2022/08/26 09:42:07;;;;;;;8.90;1.92;;;22.60;99.90;;;;;;5000458;28;20045;-64
2022/08/26 09:44:34;;;;;;;9.77;2.47;;;22.60;99.90;;;;;;5050758;28;20038;-63
2022/08/26 09:47:05;;;;;;;9.88;2.30;;;22.60;99.90;;;;;;4982879;28;20062;-66
2022/08/26 09:49:36;;;;;;;9.43;3.22;;;22.70;99.90;;;;;;5049221;28;20050;-65
2022/08/26 09:52:07;;;;;;;7.43;1.77;;;22.70;99.90;;;;;;4984538;28;20555;-64
2022/08/26 09:54:34;;;;;;;5.93;1.85;;;22.70;99.90;;;;;;5050323;28;20043;-64
2022/08/26 09:57:16;;;;;;;8.27;2.30;;;22.80;99.90;;;;;;4987008;28;20070;-63
2022/08/26 09:59:42;;;;;;;6.93;1.77;;;22.80;99.90;;;;;;5034190;28;20096;-65
2022/08/26 10:02:40;;;;;;;7.57;2.45;;;22.80;99.90;;;;;;5029174;28;20038;-63
2022/08/26 10:05:14;;;;;;;8.85;3.03;;;22.80;99.90;;;;;;4987866;28;20621;-66
2022/08/26 10:07:43;;;;;;;10.43;2.70;;;22.70;99.90;;;;;;5047985;28;20050;-66
2022/08/26 10:10:22;;;;;;;7.55;2.67;;;22.70;99.90;;;;;;5032179;28;20095;-63
2022/08/26 10:12:59;;;;;;;7.15;1.80;;;22.70;99.90;;;;;;5003841;28;20073;-66
2022/08/26 10:15:26;;;;;;;9.40;2.88;;;22.70;99.90;;;;;;4984106;28;20038;-63
2022/08/26 10:18:08;;;;;;;10.30;2.20;;;22.80;99.90;;;;;;4979472;28;20496;-65
2022/08/26 10:20:45;;;;;;;10.32;2.58;;;22.80;99.90;;;;;;4981959;28;20134;-66
2022/08/26 10:23:16;;;;;;;12.77;2.55;;;22.80;99.90;;;;;;4990528;28;20035;-65
2022/08/26 10:26:08;;;;;;;;;;;22.90;99.90;;;;;;4985339;28;20103;-65
2022/08/26 10:28:42;;;;;;;7.97;2.08;;;22.90;99.90;;;;;;5048966;28;19940;-65
2022/08/26 10:31:23;;;;;;;6.10;1.88;;;22.80;99.90;;;;;;4985644;28;20080;-64
2022/08/26 10:33:49;;;;;;;7.50;1.80;;;22.80;99.90;;;;;;4984280;28;20396;-66
2022/08/26 10:39:07;;;;;;;7.13;1.70;;;22.80;99.90;;;;;;4984580;28;20438;-66
2022/08/26 10:41:39;;;;;;;11.73;1.90;;;22.80;99.90;;;;;;4989421;28;20053;-64
2022/08/26 10:44:09;;;;;;;10.82;2.38;;;22.70;99.90;;;;;;5058011;28;20463;-66
2022/08/26 10:46:48;;;;;;;7.03;1.70;;;22.70;99.90;;;;;;4986269;28;20125;-66
2022/08/26 10:49:17;;;;;;;10.85;1.90;;;22.70;99.90;;;;;;5058169;28;20050;-64
2022/08/26 10:52:21;;;;;;;8.07;2.05;;;22.70;99.90;;;;;;5040809;28;20039;-63
2022/08/26 10:55:20;;;;;;;4.30;1.70;;;22.60;99.90;;;;;;5022968;28;20114;-63
2022/08/26 10:57:53;;;;;;;6.63;1.60;;;22.70;99.90;;;;;;4992177;28;20034;-63
2022/08/26 11:03:37;;;;;;;9.73;2.13;;;22.60;99.90;;;;;;4983861;28;20059;-66
2022/08/26 11:06:15;;;;;;;8.80;1.83;;;22.60;99.90;;;;;;5052713;28;20042;-63
2022/08/26 11:09:07;;;;;;;6.82;2.08;;;22.60;99.90;;;;;;5052678;28;20301;-63
2022/08/26 11:11:41;;;;;;;9.60;2.05;;;22.60;99.90;;;;;;5044906;28;20100;-62
2022/08/26 11:14:07;;;;;;;5.72;1.45;;;22.60;99.90;;;;;;5059273;28;20618;-65
2022/08/26 11:16:37;;;;;;;5.10;1.40;;;22.60;99.90;;;;;;4987382;28;20042;-65
2022/08/26 11:19:03;;;;;;;7.57;1.90;;;22.60;99.90;;;;;;4981980;28;20219;-66
2022/08/26 11:22:00;;;;;;;8.40;2.05;;;22.60;99.90;;;;;;4989196;28;20130;-63
2022/08/26 11:24:51;;;;;;;6.00;2.00;;;22.60;99.90;;;;;;4986015;28;20545;-63
2022/08/26 11:27:35;;;;;;;5.57;1.55;;;22.60;99.90;;;;;;4983811;28;20042;-66
2022/08/26 11:30:02;;;;;;;6.55;1.70;;;22.60;99.90;;;;;;4978678;28;20347;-66
2022/08/26 11:32:37;;;;;;;7.45;1.58;;;22.50;99.90;;;;;;5073734;23;20055;-76
2022/08/26 11:35:31;;;;;;;6.05;1.90;;;22.40;99.90;;;;;;5058338;28;20048;-77
2022/08/26 11:38:16;;;;;;;6.82;2.03;;;22.40;99.90;;;;;;5043434;28;20055;-76
2022/08/26 11:40:42;;;;;;;6.10;1.52;;;22.40;99.90;;;;;;5060362;28;20089;-76
2022/08/26 11:43:20;;;;;;;6.57;1.88;;;22.30;99.90;;;;;;5059540;28;20060;-77
2022/08/26 11:45:58;;;;;;;3.83;1.48;;;22.30;99.90;;;;;;5074457;28;20085;-77
2022/08/26 11:48:29;;;;;;;4.70;1.88;;;22.20;99.90;;;;;;5078371;28;20031;-78
2022/08/26 11:51:20;;;;;;;6.88;1.73;;;22.20;99.90;;;;;;5054782;28;20104;-77
2022/08/26 11:53:46;;;;;;;5.55;1.90;;;22.20;99.90;;;;;;5078450;28;20090;-77
2022/08/26 11:56:25;;;;;;;6.40;1.67;;;22.20;99.90;;;;;;5069831;28;20036;-77
2022/08/26 11:58:55;;;;;;;6.45;1.60;;;22.20;99.90;;;;;;5065696;28;20044;-77
2022/08/26 12:01:49;;;;;;;5.07;1.45;;;22.30;99.90;;;;;;5068660;28;20067;-78
2022/08/26 12:04:28;;;;;;;8.35;1.50;;;22.40;99.90;;;;;;5072124;28;20530;-77
2022/08/26 12:06:55;;;;;;;4.95;1.30;;;22.60;99.90;;;;;;5077281;28;20046;-78
2022/08/26 12:09:27;;;;;;;4.60;1.40;;;22.70;99.90;;;;;;5086219;28;20047;-78
2022/08/26 12:12:13;;;;;;;6.68;1.58;;;22.80;99.90;;;;;;5062166;28;20039;-77
2022/08/26 12:14:39;;;;;;;4.50;1.40;;;22.90;99.90;;;;;;5068411;28;20109;-77
2022/08/26 12:17:11;;;;;;;5.05;1.45;;;22.90;99.90;;;;;;5075179;28;20036;-78
2022/08/26 12:19:37;;;;;;;7.32;1.63;;;23.00;99.90;;;;;;5076940;28;20498;-78
2022/08/26 12:22:16;;;;;;;4.60;1.33;;;23.00;99.90;;;;;;5083230;28;20043;-77
2022/08/26 12:24:46;;;;;;;6.03;1.35;;;23.00;99.90;;;;;;5069364;28;20564;-78
2022/08/26 12:27:23;;;;;;;4.15;1.20;;;23.00;99.90;;;;;;5074060;28;20040;-78
2022/08/26 12:30:21;;;;;;;6.20;1.08;;;23.00;99.90;;;;;;5081544;28;20134;-78
2022/08/26 12:33:01;;;;;;;6.85;1.73;;;23.00;99.90;;;;;;5071595;28;20062;-78
2022/08/26 12:35:27;;;;;;;6.50;1.48;;;23.00;99.90;;;;;;5074220;28;20344;-76
2022/08/26 12:37:54;;;;;;;7.20;1.65;;;22.90;99.90;;;;;;5069164;28;20109;-76
2022/08/26 12:40:40;;;;;;;4.35;1.80;;;22.90;99.90;;;;;;5069035;28;20032;-76
2022/08/26 12:43:08;;;;;;;5.07;1.50;;;22.90;99.90;;;;;;5083160;28;20399;-76
2022/08/26 12:45:37;;;;;;;4.03;1.38;;;22.90;99.90;;;;;;5073867;28;20499;-76
2022/08/26 12:48:23;;;;;;;6.85;1.80;;;22.90;99.90;;;;;;5071794;28;20089;-77
2022/08/26 12:50:50;;;;;;;6.40;1.50;;;22.90;99.90;;;;;;5055246;28;20044;-76
2022/08/26 12:53:29;;;;;;;4.60;1.60;;;22.90;99.90;;;;;;5071568;28;20040;-76
2022/08/26 12:55:57;;;;;;;3.17;1.60;;;23.00;99.90;;;;;;5073630;28;20503;-77
2022/08/26 12:58:32;;;;;;;4.65;1.50;;;23.10;99.90;;;;;;5067230;28;20040;-76
2022/08/26 13:01:20;;;;;;;5.07;1.52;;;23.20;99.90;;;;;;5066553;28;20048;-76
2022/08/26 13:03:47;;;;;;;4.68;1.40;;;23.30;99.90;;;;;;5070737;28;20078;-77
2022/08/26 13:06:19;;;;;;;2.92;1.15;;;23.30;99.90;;;;;;5066291;28;20037;-76